createdAt,value
2019-04-22T00:00:00.990Z,47.10
2019-04-22T00:02:40.093Z,47.56
2019-04-22T00:05:14.299Z,48.59
2019-04-22T00:08:04.658Z,47.94
2019-04-22T00:10:33.166Z,49.10
2019-04-22T00:13:14.931Z,48.66
2019-04-22T00:15:34.011Z,48.85
2019-04-22T00:18:16.561Z,49.73
2019-04-22T00:20:47.115Z,50.89
2019-04-22T00:23:13.239Z,51.17
2019-04-22T00:25:42.143Z,52.06
2019-04-22T00:28:20.062Z,52.21
2019-04-22T00:30:47.095Z,53.05
2019-04-22T00:33:20.527Z,52.94
2019-04-22T00:35:56.771Z,53.15
2019-04-22T00:41:01.032Z,53.48
2019-04-22T00:43:32.988Z,53.62
2019-04-22T00:45:57.850Z,53.32
2019-04-22T00:48:57.940Z,53.26
2019-04-22T00:51:05.805Z,52.90
2019-04-22T00:53:35.449Z,52.86
2019-04-22T01:01:19.100Z,51.61
2019-04-22T01:03:55.869Z,50.99
2019-04-22T01:06:20.376Z,51.23
2019-04-22T01:11:33.537Z,51.85
2019-04-22T01:13:55.849Z,51.81
2019-04-22T01:18:53.826Z,51.64
2019-04-22T01:21:36.896Z,51.39
2019-04-22T01:23:58.043Z,50.91
2019-04-22T01:26:33.077Z,50.28
2019-04-22T01:28:59.275Z,50.60
2019-04-22T01:31:20.478Z,50.73
2019-04-22T01:34:04.339Z,50.98
2019-04-22T01:36:36.470Z,50.65
2019-04-22T01:39:18.698Z,50.79
2019-04-22T01:41:55.563Z,50.85
2019-04-22T01:44:22.622Z,50.65
2019-04-22T01:46:50.825Z,50.80
2019-04-22T01:49:21.351Z,50.65
2019-04-22T01:51:58.390Z,50.81
2019-04-22T01:54:29.803Z,50.48
2019-04-22T01:57:01.585Z,50.66
2019-04-22T01:59:19.869Z,50.51
2019-04-22T02:02:02.960Z,50.37
2019-04-22T02:04:38.206Z,50.25
2019-04-22T02:07:01.924Z,50.37
2019-04-22T02:09:38.657Z,50.43
2019-04-22T02:12:06.426Z,50.00
2019-04-22T02:14:39.347Z,49.64
2019-04-22T02:17:14.532Z,49.94
2019-04-22T02:19:45.531Z,49.90
2019-04-22T02:22:27.581Z,50.33
2019-04-22T02:24:43.904Z,50.24
2019-04-22T02:27:17.498Z,50.11
2019-04-22T02:29:47.368Z,49.83
2019-04-22T02:35:01.216Z,50.34
2019-04-22T02:37:26.443Z,50.58
2019-04-22T02:39:58.091Z,50.73
2019-04-22T02:42:23.577Z,51.01
2019-04-22T02:44:53.109Z,50.98
2019-04-22T02:50:07.024Z,51.48
2019-04-22T02:52:41.077Z,51.85
2019-04-22T02:57:39.290Z,52.32
2019-04-22T03:00:18.192Z,52.67
2019-04-22T03:05:24.090Z,53.72
2019-04-22T03:07:48.996Z,53.85
2019-04-22T03:10:22.688Z,53.95
2019-04-22T03:12:41.334Z,54.48
2019-04-22T03:15:30.512Z,55.11
2019-04-22T03:17:43.638Z,55.50
2019-04-22T03:23:01.762Z,56.48
2019-04-22T03:25:55.538Z,56.43
2019-04-22T03:27:48.293Z,55.78
2019-04-22T03:33:11.212Z,55.24
2019-04-22T03:36:36.434Z,54.63
2019-04-22T03:43:20.955Z,54.03
2019-04-22T03:50:29.631Z,53.79
2019-04-22T03:53:09.762Z,53.78
2019-04-22T03:55:41.229Z,53.65
2019-04-22T03:58:21.432Z,54.14
2019-04-22T04:00:55.548Z,53.92
2019-04-22T04:16:26.746Z,55.33
2019-04-22T04:19:02.586Z,54.13
2019-04-22T04:24:24.115Z,52.93
2019-04-22T04:26:42.550Z,56.44
2019-04-22T04:29:05.913Z,57.13
2019-04-22T04:31:33.315Z,58.97
2019-04-22T04:36:38.869Z,59.18
2019-04-22T04:39:00.582Z,59.73
2019-04-22T04:41:42.899Z,59.78
2019-04-22T04:56:40.588Z,58.75
2019-04-22T04:59:30.384Z,59.98
2019-04-22T05:01:45.119Z,61.74
2019-04-22T05:04:25.919Z,65.00
2019-04-22T05:06:51.802Z,62.43
2019-04-22T05:09:21.456Z,62.77
2019-04-22T05:14:19.253Z,64.71
2019-04-22T05:16:54.764Z,67.36
2019-04-22T05:19:22.637Z,72.54
2019-04-22T05:21:54.499Z,67.48
2019-04-22T05:24:24.302Z,66.92
2019-04-22T05:26:57.043Z,63.62
2019-04-22T05:29:35.109Z,64.78
2019-04-22T05:34:28.114Z,64.19
2019-04-22T05:36:52.812Z,65.11
2019-04-22T05:39:24.613Z,66.63
2019-04-22T05:42:03.199Z,63.39
2019-04-22T05:44:29.399Z,62.00
2019-04-22T05:47:04.733Z,63.38
2019-04-22T05:49:31.165Z,61.93
2019-04-22T05:52:02.854Z,64.70
2019-04-22T05:54:34.695Z,62.32
2019-04-22T05:57:12.955Z,60.72
2019-04-22T05:59:39.603Z,60.19
2019-04-22T06:02:13.576Z,59.48
2019-04-22T06:04:49.396Z,60.22
2019-04-22T06:07:13.629Z,57.99
2019-04-22T06:09:41.111Z,57.98
2019-04-22T06:12:12.312Z,55.61
2019-04-22T06:14:54.345Z,55.97
2019-04-22T06:17:32.087Z,52.17
2019-04-22T06:19:57.594Z,53.67
2019-04-22T06:22:41.324Z,50.34
2019-04-22T06:25:01.127Z,49.73
2019-04-22T06:27:33.027Z,53.67
2019-04-22T06:30:07.982Z,52.47
2019-04-22T06:32:32.497Z,52.37
2019-04-22T06:35:19.802Z,52.61
2019-04-22T06:37:45.930Z,52.31
2019-04-22T06:40:13.043Z,51.11
2019-04-22T06:42:48.985Z,51.68
2019-04-22T06:50:16.608Z,50.92
2019-04-22T06:52:51.962Z,51.79
2019-04-22T06:55:21.241Z,50.52
2019-04-22T06:57:55.076Z,47.46
2019-04-22T07:00:24.500Z,47.56
2019-04-22T07:05:27.548Z,50.06
2019-04-22T07:08:04.386Z,49.68
2019-04-22T07:13:00.947Z,49.08
2019-04-22T07:18:03.035Z,48.99
2019-04-22T07:20:42.017Z,49.82
2019-04-22T07:23:07.980Z,50.08
2019-04-22T07:25:34.910Z,50.17
2019-04-22T07:28:14.252Z,50.26
2019-04-22T07:30:41.020Z,51.28
2019-04-22T07:38:18.687Z,49.75
2019-04-22T07:45:51.923Z,49.75
2019-04-22T07:48:33.951Z,49.66
2019-04-22T07:53:22.996Z,49.22
2019-04-22T07:56:01.386Z,49.31
2019-04-22T08:01:07.209Z,48.79
2019-04-22T08:03:38.105Z,48.24
2019-04-22T08:08:29.098Z,44.21
2019-04-22T08:11:10.349Z,45.31
2019-04-22T08:13:38.563Z,43.63
2019-04-22T08:18:55.805Z,42.58
2019-04-22T08:21:09.101Z,43.30
2019-04-22T08:23:41.720Z,41.51
2019-04-22T08:26:11.190Z,44.14
2019-04-22T08:28:46.523Z,45.59
2019-04-22T08:31:18.765Z,43.05
2019-04-22T08:33:46.916Z,42.75
2019-04-22T08:36:24.078Z,41.50
2019-04-22T08:38:55.921Z,43.59
2019-04-22T08:56:37.695Z,39.70
2019-04-22T08:59:11.051Z,37.82
2019-04-22T09:02:04.870Z,39.95
2019-04-22T09:07:06.117Z,39.55
2019-04-22T09:11:48.499Z,37.43
2019-04-22T09:14:15.693Z,38.28
2019-04-22T09:16:42.736Z,38.84
2019-04-22T09:19:17.830Z,40.04
2019-04-22T09:21:56.018Z,41.54
2019-04-22T09:24:16.802Z,42.82
2019-04-22T09:26:54.483Z,41.29
2019-04-22T09:29:29.440Z,43.96
2019-04-22T09:32:00.416Z,44.40
2019-04-22T09:34:32.092Z,41.29
2019-04-22T09:37:05.995Z,42.03
2019-04-22T09:39:29.480Z,40.91
2019-04-22T09:42:03.014Z,40.67
2019-04-22T09:44:34.620Z,41.92
2019-04-22T09:47:00.012Z,42.34
2019-04-22T09:49:37.086Z,41.05
2019-04-22T09:52:02.935Z,41.30
2019-04-22T09:54:49.621Z,39.63
2019-04-22T09:57:09.520Z,38.32
2019-04-22T09:59:44.057Z,40.58
2019-04-22T10:04:46.651Z,38.06
2019-04-22T10:07:19.817Z,39.74
2019-04-22T10:12:19.301Z,35.63
2019-04-22T10:14:49.706Z,39.17
2019-04-22T10:17:17.304Z,37.29
2019-04-22T10:20:07.116Z,35.42
2019-04-22T10:22:27.582Z,37.93
2019-04-22T10:24:53.216Z,35.92
2019-04-22T10:27:26.282Z,38.58
2019-04-22T10:30:00.209Z,36.54
2019-04-22T10:32:33.584Z,39.28
2019-04-22T10:34:57.231Z,35.57
2019-04-22T10:37:22.399Z,35.32
2019-04-22T10:39:57.504Z,39.27
2019-04-22T10:42:25.217Z,38.94
2019-04-22T10:44:57.271Z,37.70
2019-04-22T10:47:27.991Z,39.86
2019-04-22T10:49:58.295Z,39.45
2019-04-22T10:52:28.001Z,39.07
2019-04-22T10:54:58.990Z,39.49
2019-04-22T10:57:29.774Z,38.24
2019-04-22T11:00:00.935Z,36.21
2019-04-22T11:02:31.782Z,38.85
2019-04-22T11:05:02.059Z,39.28
2019-04-22T11:07:39.736Z,38.61
2019-04-22T11:10:20.475Z,38.23
2019-04-22T11:12:36.176Z,37.45
2019-04-22T11:15:09.747Z,35.51
2019-04-22T11:17:41.885Z,37.48
2019-04-22T11:20:13.483Z,39.01
2019-04-22T11:22:44.556Z,38.49
2019-04-22T11:25:16.045Z,37.26
2019-04-22T11:27:47.210Z,34.93
2019-04-22T11:30:21.989Z,34.32
2019-04-22T11:32:51.880Z,37.04
2019-04-22T11:35:21.968Z,37.75
2019-04-22T11:37:52.726Z,39.88
2019-04-22T11:40:28.782Z,39.08
2019-04-22T11:42:54.651Z,38.19
2019-04-22T11:45:24.977Z,35.28
2019-04-22T11:47:55.265Z,34.96
2019-04-22T11:50:28.072Z,37.69
2019-04-22T11:52:58.562Z,36.54
2019-04-22T11:55:28.891Z,38.64
2019-04-22T11:57:58.992Z,35.76
2019-04-22T12:00:34.758Z,37.85
2019-04-22T12:03:05.408Z,37.34
2019-04-22T12:05:35.146Z,39.80
2019-04-22T12:08:05.097Z,37.66
2019-04-22T12:10:42.747Z,36.65
2019-04-22T12:13:08.110Z,35.57
2019-04-22T12:15:37.940Z,38.95
2019-04-22T12:18:09.223Z,37.02
2019-04-22T12:20:39.251Z,38.06
2019-04-22T12:23:09.483Z,41.14
2019-04-22T12:25:47.615Z,37.70
2019-04-22T12:28:11.162Z,36.64
2019-04-22T12:30:41.747Z,38.27
2019-04-22T12:33:14.767Z,35.24
2019-04-22T12:35:44.232Z,37.44
2019-04-22T12:38:15.257Z,37.51
2019-04-22T12:40:53.187Z,34.29
2019-04-22T12:43:20.244Z,35.62
2019-04-22T12:45:48.144Z,38.09
2019-04-22T12:48:19.089Z,38.33
2019-04-22T12:50:52.120Z,34.69
2019-04-22T12:53:22.566Z,35.57
2019-04-22T12:55:54.902Z,38.12
2019-04-22T12:58:23.569Z,35.47
2019-04-22T13:00:54.578Z,34.59
2019-04-22T13:03:24.580Z,34.46
2019-04-22T13:05:56.159Z,33.06
2019-04-22T13:08:27.509Z,34.35
2019-04-22T13:11:02.959Z,33.85
2019-04-22T13:13:29.049Z,33.38
2019-04-22T13:15:59.390Z,33.50
2019-04-22T13:18:37.502Z,35.35
2019-04-22T13:21:00.466Z,34.34
2019-04-22T13:23:30.102Z,35.84
2019-04-22T13:26:00.942Z,34.00
2019-04-22T13:28:31.500Z,33.16
2019-04-22T13:31:01.957Z,34.15
2019-04-22T13:33:32.906Z,37.12
2019-04-22T13:36:03.756Z,36.77
2019-04-22T13:38:35.251Z,35.61
2019-04-22T13:41:17.299Z,32.87
2019-04-22T13:43:36.708Z,34.28
2019-04-22T13:46:14.373Z,31.92
2019-04-22T13:49:13.185Z,32.48
2019-04-22T13:51:48.356Z,32.12
2019-04-22T13:54:42.405Z,32.02
2019-04-22T13:56:38.811Z,33.15
2019-04-22T13:59:01.860Z,31.76
2019-04-22T14:01:22.947Z,33.10
2019-04-22T14:04:00.789Z,33.47
2019-04-22T14:06:31.098Z,32.56
2019-04-22T14:09:01.142Z,32.58
2019-04-22T14:11:39.046Z,32.51
2019-04-22T14:14:02.846Z,32.60
2019-04-22T14:16:33.158Z,31.44
2019-04-22T14:19:02.817Z,32.72
2019-04-22T14:21:32.713Z,34.41
2019-04-22T14:24:02.705Z,34.71
2019-04-22T14:26:46.868Z,32.17
2019-04-22T14:29:04.163Z,32.82
2019-04-22T14:31:34.495Z,31.51
2019-04-22T14:34:07.339Z,31.46
2019-04-22T14:36:37.131Z,31.53
2019-04-22T14:39:10.284Z,32.41
2019-04-22T14:41:54.811Z,31.08
2019-04-22T14:47:09.137Z,33.06
2019-04-22T14:49:38.298Z,32.86
2019-04-22T14:52:13.609Z,32.67
2019-04-22T14:54:30.952Z,33.62
2019-04-22T14:56:48.522Z,34.13
2019-04-22T14:59:18.906Z,33.25
2019-04-22T15:01:49.785Z,34.11
2019-04-22T15:04:19.707Z,35.61
2019-04-22T15:06:50.355Z,33.86
2019-04-22T15:09:21.722Z,32.78
2019-04-22T15:12:04.893Z,33.45
2019-04-22T15:14:23.349Z,34.19
2019-04-22T15:17:18.693Z,34.77
2019-04-22T15:20:01.624Z,33.90
2019-04-22T15:22:32.624Z,36.78
2019-04-22T15:25:02.983Z,35.86
2019-04-22T15:27:33.182Z,36.61
2019-04-22T15:30:03.603Z,35.80
2019-04-22T15:32:33.589Z,38.55
2019-04-22T15:35:03.214Z,37.25
2019-04-22T15:37:33.229Z,41.22
2019-04-22T15:40:04.616Z,40.41
2019-04-22T15:42:38.331Z,41.89
2019-04-22T15:45:08.644Z,40.03
2019-04-22T15:47:37.830Z,42.47
2019-04-22T15:50:08.089Z,41.79
2019-04-22T15:52:44.510Z,42.21
2019-04-22T15:55:09.212Z,43.47
2019-04-22T15:57:39.873Z,43.10
2019-04-22T16:00:22.804Z,44.18
2019-04-22T16:02:41.703Z,43.90
2019-04-22T16:05:12.760Z,45.89
2019-04-22T16:07:43.954Z,46.10
2019-04-22T16:10:15.772Z,46.46
2019-04-22T16:12:56.090Z,46.52
2019-04-22T16:15:18.541Z,46.76
2019-04-22T16:17:48.821Z,47.55
2019-04-22T16:20:19.276Z,47.46
2019-04-22T16:23:07.763Z,48.65
2019-04-22T16:26:05.497Z,48.59
2019-04-22T16:28:35.421Z,48.95
2019-04-22T16:31:05.316Z,48.72
2019-04-22T16:33:39.969Z,49.85
2019-04-22T16:36:09.030Z,49.83
2019-04-22T16:38:38.780Z,50.55
2019-04-22T16:41:08.589Z,50.83
2019-04-22T16:43:38.404Z,50.44
2019-04-22T16:46:09.650Z,49.39
2019-04-22T16:48:39.950Z,50.38
2019-04-22T16:51:10.020Z,50.92
2019-04-22T16:53:41.068Z,50.48
2019-04-22T16:56:11.042Z,49.36
2019-04-22T16:58:41.048Z,50.31
2019-04-22T17:01:30.552Z,50.27
2019-04-22T17:04:14.526Z,49.14
2019-04-22T17:06:45.594Z,49.63
2019-04-22T17:09:17.641Z,48.33
2019-04-22T17:11:47.959Z,48.81
2019-04-22T17:14:25.308Z,49.53
2019-04-22T17:16:50.502Z,50.37
2019-04-22T17:19:21.643Z,51.44
2019-04-22T17:21:51.399Z,51.89
2019-04-22T17:24:21.667Z,51.18
2019-04-22T17:26:52.597Z,50.57
2019-04-22T17:29:22.793Z,51.56
2019-04-22T17:31:58.249Z,51.24
2019-04-22T17:34:25.370Z,50.35
2019-04-22T17:36:55.361Z,52.90
2019-04-22T17:39:35.614Z,51.75
2019-04-22T17:42:14.057Z,53.70
2019-04-22T17:45:00.368Z,53.88
2019-04-22T17:47:32.969Z,53.13
2019-04-22T17:50:22.426Z,52.84
2019-04-22T17:52:51.041Z,50.30
2019-04-22T17:55:19.589Z,48.33
2019-04-22T17:57:49.511Z,51.01
2019-04-22T18:00:21.848Z,49.48
2019-04-22T18:02:45.747Z,49.65
2019-04-22T18:05:07.372Z,46.08
2019-04-22T18:07:57.371Z,45.79
2019-04-22T18:13:12.031Z,45.96
2019-04-22T18:15:29.427Z,48.31
2019-04-22T18:18:06.891Z,48.83
2019-04-22T18:20:29.278Z,46.58
2019-04-22T18:22:54.300Z,44.30
2019-04-22T18:25:33.885Z,45.94
2019-04-22T18:28:13.481Z,47.12
2019-04-22T18:30:33.348Z,49.58
2019-04-22T18:33:13.009Z,47.77
2019-04-22T18:35:39.386Z,52.27
2019-04-22T18:38:28.257Z,53.23
2019-04-22T18:40:57.335Z,54.41
2019-04-22T18:43:51.795Z,55.04
2019-04-22T18:46:32.552Z,53.74
2019-04-22T18:49:00.606Z,54.88
2019-04-22T18:51:45.362Z,54.61
2019-04-22T18:54:31.083Z,54.91
2019-04-22T18:56:58.772Z,55.86
2019-04-22T18:59:21.288Z,54.70
2019-04-22T19:01:44.362Z,52.34
2019-04-22T19:04:24.314Z,54.38
2019-04-22T19:07:15.261Z,55.34
2019-04-22T19:09:53.284Z,55.97
2019-04-22T19:14:56.703Z,56.37
2019-04-22T19:19:56.214Z,56.36
2019-04-22T19:22:29.892Z,56.83
2019-04-22T19:24:51.729Z,57.13
2019-04-22T19:27:26.606Z,56.31
2019-04-22T19:29:57.812Z,56.66
2019-04-22T19:32:35.096Z,55.69
2019-04-22T19:35:01.581Z,57.08
2019-04-22T19:37:28.375Z,54.24
2019-04-22T19:40:09.616Z,55.45
2019-04-22T19:45:08.299Z,55.27
2019-04-22T19:47:46.499Z,56.43
2019-04-22T19:52:39.843Z,57.58
2019-04-22T19:55:15.713Z,57.88
2019-04-22T19:57:43.418Z,58.25
2019-04-22T20:00:18.469Z,58.32
2019-04-22T20:03:13.244Z,58.70
2019-04-22T20:05:59.441Z,58.02
2019-04-22T20:08:31.178Z,58.19
2019-04-22T20:11:08.575Z,58.74
2019-04-22T20:13:37.188Z,58.44
2019-04-22T20:15:56.112Z,58.47
2019-04-22T20:18:48.341Z,57.99
2019-04-22T20:21:11.926Z,57.69
2019-04-22T20:23:36.395Z,57.50
2019-04-22T20:26:07.563Z,57.94
2019-04-22T20:28:44.661Z,57.93
2019-04-22T20:31:14.121Z,58.22
2019-04-22T20:33:51.321Z,58.03
2019-04-22T20:36:39.419Z,57.96
2019-04-22T20:38:44.963Z,57.85
2019-04-22T20:41:17.120Z,57.81
2019-04-22T20:44:04.963Z,57.55
2019-04-22T20:46:20.495Z,57.21
2019-04-22T20:48:54.866Z,57.94
2019-04-22T20:51:38.443Z,57.44
2019-04-22T20:54:02.092Z,57.63
2019-04-22T20:56:25.651Z,57.73
2019-04-22T20:59:03.948Z,57.79
2019-04-22T21:01:34.421Z,58.05
2019-04-22T21:03:50.610Z,57.95
2019-04-22T21:06:33.559Z,58.10
2019-04-22T21:09:08.887Z,58.76
2019-04-22T21:11:34.010Z,58.86
2019-04-22T21:14:06.004Z,59.59
2019-04-22T21:16:40.867Z,58.84
2019-04-22T21:19:18.884Z,58.77
2019-04-22T21:21:44.985Z,59.36
2019-04-22T21:24:13.986Z,59.31
2019-04-22T21:26:45.372Z,59.06
2019-04-22T21:29:14.619Z,58.74
2019-04-22T21:31:51.207Z,58.73
2019-04-22T21:34:16.139Z,58.76
2019-04-22T21:36:58.201Z,58.70
2019-04-22T21:39:20.533Z,58.49
2019-04-22T21:41:51.442Z,59.39
2019-04-22T21:44:29.069Z,59.77
2019-04-22T21:47:09.021Z,59.63
2019-04-22T21:49:29.688Z,59.87
2019-04-22T21:52:01.642Z,59.75
2019-04-22T21:54:34.261Z,59.99
2019-04-22T21:57:24.661Z,59.99
2019-04-22T21:59:51.090Z,59.74
2019-04-22T22:02:29.634Z,60.25
2019-04-22T22:04:47.383Z,60.04
2019-04-22T22:07:13.570Z,60.05
2019-04-22T22:09:53.806Z,60.18
2019-04-22T22:12:33.711Z,60.04
2019-04-22T22:15:04.168Z,60.34
2019-04-22T22:17:30.728Z,60.69
2019-04-22T22:19:57.800Z,60.30
2019-04-22T22:22:46.606Z,60.17
2019-04-22T22:25:10.495Z,60.76
2019-04-22T22:27:39.331Z,60.87
2019-04-22T22:30:33.513Z,61.17
2019-04-22T22:32:40.182Z,60.82
2019-04-22T22:35:16.192Z,61.51
2019-04-22T22:37:35.938Z,61.73
2019-04-22T22:40:01.208Z,61.78
2019-04-22T22:42:33.761Z,61.85
2019-04-22T22:45:10.305Z,61.75
2019-04-22T22:47:48.745Z,61.77
2019-04-22T22:50:20.379Z,61.75
2019-04-22T22:53:00.965Z,61.23
2019-04-22T22:55:24.987Z,61.40
2019-04-22T22:57:58.364Z,61.52
2019-04-22T23:00:22.318Z,61.41
2019-04-22T23:03:06.802Z,60.64
2019-04-22T23:05:35.905Z,60.32
2019-04-22T23:07:58.745Z,60.65
2019-04-22T23:10:34.128Z,60.45
2019-04-22T23:13:08.495Z,60.87
2019-04-22T23:15:27.546Z,60.61
2019-04-22T23:17:45.725Z,60.60
2019-04-22T23:20:18.583Z,60.06
2019-04-22T23:23:12.321Z,60.81
2019-04-22T23:25:41.546Z,61.44
2019-04-22T23:28:26.652Z,61.64
2019-04-22T23:31:21.160Z,61.75
2019-04-22T23:33:56.129Z,61.40
2019-04-22T23:36:36.814Z,59.41
2019-04-22T23:39:21.533Z,60.72
2019-04-22T23:42:04.823Z,61.45
2019-04-22T23:44:18.391Z,61.50
2019-04-22T23:46:55.359Z,61.70
2019-04-22T23:49:25.341Z,60.36
2019-04-22T23:52:16.168Z,59.85
2019-04-22T23:54:49.655Z,59.25
2019-04-22T23:57:03.204Z,59.02
2019-04-22T23:59:47.870Z,59.99
